Time;durP1;ratioP1;P1;durP2;ratioP2;P2;SDS_P1;SDS_P2;PMS_P1;PMS_P2;Temp;Humidity;BMP_temperature;BMP_pressure;BME280_temperature;BME280_humidity;BME280_pressure;Samples;Min_cycle;Max_cycle;Signal;HPM_P1;HPM_P2
2022/03/15 00:00:22;;;;;;;8.15;3.80;;;19.30;59.60;;;;;;5018481;28;20067;-62
2022/03/15 00:02:50;;;;;;;7.32;3.58;;;19.20;59.70;;;;;;5021499;28;20414;-62
2022/03/15 00:05:18;;;;;;;6.97;3.00;;;19.30;59.70;;;;;;5025618;28;20033;-62
2022/03/15 00:07:44;;;;;;;8.75;3.42;;;19.20;59.70;;;;;;5024019;28;20108;-62
2022/03/15 00:10:12;;;;;;;7.30;3.42;;;19.20;59.60;;;;;;5026002;28;20121;-62
2022/03/15 00:12:44;;;;;;;6.35;3.08;;;19.20;59.60;;;;;;5023383;28;20065;-62
2022/03/15 00:15:10;;;;;;;7.50;3.35;;;19.20;59.70;;;;;;5023802;28;20044;-62
2022/03/15 00:17:36;;;;;;;7.75;3.40;;;19.20;59.60;;;;;;5026906;28;20393;-62
2022/03/15 00:20:07;;;;;;;6.07;3.20;;;19.10;59.60;;;;;;5023233;28;20088;-62
2022/03/15 00:22:34;;;;;;;7.63;3.00;;;19.10;59.50;;;;;;5028484;28;20036;-63
2022/03/15 00:25:02;;;;;;;8.15;3.42;;;19.10;59.60;;;;;;5026984;28;20037;-62
2022/03/15 00:27:28;;;;;;;7.80;3.38;;;19.10;59.60;;;;;;5027174;28;20026;-62
2022/03/15 00:29:53;;;;;;;6.40;3.08;;;19.10;59.60;;;;;;5032727;28;20057;-62
2022/03/15 00:32:20;;;;;;;6.32;2.90;;;19.10;59.60;;;;;;5026563;28;20498;-62
2022/03/15 00:34:47;;;;;;;7.18;3.22;;;19.00;59.60;;;;;;5026689;28;20053;-62
2022/03/15 00:37:13;;;;;;;7.50;3.30;;;19.00;59.40;;;;;;5022502;28;20041;-62
2022/03/15 00:39:39;;;;;;;7.13;3.00;;;19.00;59.50;;;;;;5020457;28;20030;-62
2022/03/15 00:42:04;;;;;;;7.63;3.20;;;19.00;59.40;;;;;;5027503;28;20050;-62
2022/03/15 00:44:30;;;;;;;7.00;3.40;;;18.90;59.60;;;;;;5028726;28;20021;-62
2022/03/15 00:46:56;;;;;;;7.22;3.00;;;18.90;59.60;;;;;;5023204;28;20103;-62
2022/03/15 00:49:23;;;;;;;7.75;3.33;;;18.90;59.50;;;;;;5020628;28;20038;-62
2022/03/15 00:51:49;;;;;;;6.55;3.10;;;18.90;59.50;;;;;;5024949;28;20079;-62
2022/03/15 00:54:15;;;;;;;8.35;3.30;;;18.90;59.40;;;;;;5021716;28;20609;-62
2022/03/15 00:56:40;;;;;;;6.95;3.08;;;18.90;60.50;;;;;;5022449;28;20022;-62
2022/03/15 00:59:07;;;;;;;5.25;2.60;;;18.90;59.50;;;;;;5017989;28;20040;-62
2022/03/15 01:01:32;;;;;;;7.00;3.10;;;18.90;59.40;;;;;;5025105;28;20032;-62
2022/03/15 01:03:58;;;;;;;7.03;3.17;;;18.80;59.40;;;;;;5024642;28;20670;-62
2022/03/15 01:06:23;;;;;;;7.90;3.10;;;18.80;59.30;;;;;;5019973;28;20029;-62
2022/03/15 01:08:49;;;;;;;6.90;3.22;;;18.80;59.40;;;;;;5020762;28;20034;-62
2022/03/15 01:11:15;;;;;;;7.30;3.03;;;18.80;59.40;;;;;;5027422;28;20028;-62
2022/03/15 01:13:40;;;;;;;8.10;2.97;;;18.80;59.30;;;;;;5023839;28;20429;-62
2022/03/15 01:16:06;;;;;;;8.10;3.20;;;18.80;59.40;;;;;;5021331;28;20018;-62
2022/03/15 01:18:33;;;;;;;5.22;2.70;;;18.70;59.40;;;;;;5022576;28;20036;-62
2022/03/15 01:20:59;;;;;;;6.75;3.05;;;18.70;59.40;;;;;;5019715;28;20030;-62
2022/03/15 01:23:24;;;;;;;6.57;2.80;;;18.70;59.30;;;;;;5018195;28;20025;-62
2022/03/15 01:25:50;;;;;;;6.32;3.08;;;18.70;59.20;;;;;;5022582;28;20022;-62
2022/03/15 01:28:16;;;;;;;6.97;3.20;;;18.70;59.20;;;;;;5015127;28;20091;-62
2022/03/15 01:30:41;;;;;;;6.22;2.80;;;18.70;59.10;;;;;;5025038;28;20112;-62
2022/03/15 01:33:07;;;;;;;6.88;2.90;;;18.60;59.00;;;;;;5020209;28;20518;-62
2022/03/15 01:35:33;;;;;;;5.72;2.83;;;18.60;58.90;;;;;;5027822;28;20478;-62
2022/03/15 01:37:59;;;;;;;6.47;3.00;;;18.60;58.80;;;;;;5025183;28;20136;-62
2022/03/15 01:40:24;;;;;;;7.35;3.05;;;18.60;58.90;;;;;;5016304;28;20046;-62
2022/03/15 01:42:50;;;;;;;6.40;2.90;;;18.60;58.70;;;;;;5028992;28;20168;-62
2022/03/15 01:45:16;;;;;;;7.97;3.00;;;18.50;58.60;;;;;;5020062;28;20057;-62
2022/03/15 01:47:43;;;;;;;6.45;3.05;;;18.60;58.60;;;;;;5025619;28;20037;-62
2022/03/15 01:50:09;;;;;;;7.00;2.70;;;18.50;58.40;;;;;;5019290;28;20033;-62
2022/03/15 01:52:35;;;;;;;6.85;2.72;;;18.50;58.30;;;;;;5021786;28;20394;-62
2022/03/15 01:55:00;;;;;;;7.00;2.83;;;18.50;58.30;;;;;;5022692;28;20094;-62
2022/03/15 01:57:26;;;;;;;6.90;2.90;;;18.50;58.20;;;;;;5016711;28;20048;-63
2022/03/15 01:59:52;;;;;;;5.65;2.75;;;18.50;58.30;;;;;;5022798;28;20025;-62
2022/03/15 02:02:18;;;;;;;5.70;2.83;;;18.50;58.00;;;;;;5019362;28;20049;-62
2022/03/15 02:04:43;;;;;;;6.85;2.85;;;18.40;58.00;;;;;;5026689;28;20025;-62
2022/03/15 02:07:13;;;;;;;7.03;2.88;;;18.40;57.90;;;;;;5018266;28;20030;-63
2022/03/15 02:09:39;;;;;;;6.00;2.83;;;18.40;57.90;;;;;;5023613;28;20116;-62
2022/03/15 02:12:05;;;;;;;5.80;2.40;;;18.40;57.90;;;;;;5020561;28;20379;-62
2022/03/15 02:14:31;;;;;;;6.00;2.60;;;18.40;57.70;;;;;;5019689;28;20029;-62
2022/03/15 02:16:56;;;;;;;7.47;3.08;;;18.40;57.70;;;;;;5017888;28;20029;-62
2022/03/15 02:19:22;;;;;;;6.60;2.70;;;18.40;57.80;;;;;;5019193;28;20521;-62
2022/03/15 02:21:49;;;;;;;5.93;2.92;;;18.30;57.60;;;;;;5025382;28;20022;-62
2022/03/15 02:24:15;;;;;;;6.57;2.63;;;18.30;57.70;;;;;;5024782;28;20034;-62
2022/03/15 02:26:40;;;;;;;5.85;2.78;;;18.30;57.70;;;;;;5019725;28;20029;-62
2022/03/15 02:29:06;;;;;;;6.60;2.63;;;18.30;57.70;;;;;;5020501;28;20034;-62
2022/03/15 02:31:32;;;;;;;5.80;2.55;;;18.30;57.70;;;;;;5018213;28;20113;-62
2022/03/15 02:33:57;;;;;;;5.50;2.70;;;18.30;57.60;;;;;;5022591;28;20038;-62
2022/03/15 02:36:23;;;;;;;5.30;2.38;;;18.30;57.60;;;;;;5017624;28;20084;-62
2022/03/15 02:38:49;;;;;;;6.43;2.72;;;18.20;57.70;;;;;;5017581;28;20029;-62
2022/03/15 02:41:14;;;;;;;5.93;2.60;;;18.20;57.60;;;;;;5019623;28;20045;-62
2022/03/15 02:43:41;;;;;;;5.63;2.50;;;18.20;57.70;;;;;;5018937;28;20025;-62
2022/03/15 02:46:07;;;;;;;5.78;2.80;;;18.20;57.80;;;;;;5020401;28;20017;-62
2022/03/15 02:48:34;;;;;;;5.10;2.42;;;18.20;57.80;;;;;;5017808;28;20041;-62
2022/03/15 02:51:05;;;;;;;4.95;2.33;;;18.20;57.80;;;;;;5023671;28;20056;-62
2022/03/15 02:53:30;;;;;;;5.50;2.67;;;18.20;57.90;;;;;;5017332;28;20044;-62
2022/03/15 02:55:56;;;;;;;7.55;2.90;;;18.20;58.10;;;;;;5015693;28;20033;-62
2022/03/15 02:58:21;;;;;;;7.38;2.78;;;18.10;57.80;;;;;;5023045;28;20482;-62
2022/03/15 03:00:48;;;;;;;6.03;2.60;;;18.10;57.80;;;;;;5021343;28;20794;-62
2022/03/15 03:03:13;;;;;;;6.65;2.60;;;18.10;58.10;;;;;;5019392;28;20446;-62
2022/03/15 03:05:39;;;;;;;6.20;2.65;;;18.10;58.10;;;;;;5022402;28;20051;-62
2022/03/15 03:08:05;;;;;;;6.65;2.75;;;18.10;58.20;;;;;;5021451;28;20038;-62
2022/03/15 03:10:32;;;;;;;5.63;2.53;;;18.00;58.20;;;;;;5023153;28;20022;-62
2022/03/15 03:12:57;;;;;;;5.38;2.42;;;18.00;58.30;;;;;;5023409;28;20151;-62
2022/03/15 03:15:23;;;;;;;5.07;2.60;;;18.00;58.20;;;;;;5052654;28;20049;-62
2022/03/15 03:17:49;;;;;;;6.63;2.60;;;18.00;58.20;;;;;;5020395;28;20506;-62
2022/03/15 03:20:18;;;;;;;5.30;2.40;;;18.00;59.20;;;;;;5022916;28;20026;-62
2022/03/15 03:22:44;;;;;;;5.60;2.60;;;18.00;58.20;;;;;;5017305;28;20435;-62
2022/03/15 03:25:10;;;;;;;6.28;2.53;;;18.00;58.30;;;;;;5017332;28;20022;-62
2022/03/15 03:27:35;;;;;;;5.60;2.45;;;18.00;58.50;;;;;;5025407;28;20022;-62
2022/03/15 03:30:02;;;;;;;4.75;2.25;;;18.00;58.60;;;;;;5056422;28;20041;-62
2022/03/15 03:32:27;;;;;;;5.75;2.40;;;17.90;58.50;;;;;;5023440;28;20117;-62
2022/03/15 03:34:56;;;;;;;5.70;2.45;;;17.90;58.50;;;;;;5019716;28;20478;-62
2022/03/15 03:37:22;;;;;;;5.35;2.55;;;17.90;58.50;;;;;;5021461;28;20530;-62
2022/03/15 03:39:48;;;;;;;5.53;2.42;;;17.90;58.60;;;;;;5025245;28;20029;-62
2022/03/15 03:42:14;;;;;;;5.35;2.45;;;17.90;58.60;;;;;;5020104;28;20053;-62
2022/03/15 03:44:42;;;;;;;5.45;2.55;;;17.90;58.40;;;;;;5025840;28;20452;-62
2022/03/15 03:47:08;;;;;;;5.60;2.50;;;17.90;58.60;;;;;;5015823;28;20022;-62
2022/03/15 03:49:34;;;;;;;5.70;2.50;;;17.90;58.60;;;;;;5022322;28;20065;-62
2022/03/15 03:51:59;;;;;;;6.32;2.40;;;17.90;58.40;;;;;;5022470;28;20054;-62
2022/03/15 03:54:26;;;;;;;6.00;2.25;;;17.80;58.40;;;;;;5028136;28;20029;-62
2022/03/15 03:56:52;;;;;;;5.47;2.22;;;17.80;59.30;;;;;;5024185;28;20489;-62
2022/03/15 03:59:17;;;;;;;4.15;2.17;;;17.80;58.50;;;;;;5024140;28;20075;-62
2022/03/15 04:01:43;;;;;;;5.50;2.50;;;17.80;58.20;;;;;;5018420;28;20026;-62
2022/03/15 04:04:09;;;;;;;4.95;2.30;;;17.80;58.50;;;;;;5020382;28;20030;-62
2022/03/15 04:06:36;;;;;;;5.75;2.50;;;17.80;58.50;;;;;;5020721;28;20044;-62
2022/03/15 04:09:03;;;;;;;5.30;2.13;;;17.80;58.30;;;;;;5020543;28;20110;-62
2022/03/15 04:11:31;;;;;;;4.25;2.20;;;17.80;58.20;;;;;;5024690;28;20025;-62
2022/03/15 04:13:59;;;;;;;4.47;2.30;;;17.80;58.40;;;;;;5021954;28;20031;-62
2022/03/15 04:16:25;;;;;;;4.60;2.20;;;17.70;58.50;;;;;;5020297;28;20041;-62
2022/03/15 04:18:51;;;;;;;3.75;2.10;;;17.70;58.20;;;;;;5024234;28;20029;-62
2022/03/15 04:21:17;;;;;;;4.18;2.20;;;17.70;58.30;;;;;;5020041;28;20033;-62
2022/03/15 04:23:42;;;;;;;6.30;2.50;;;17.70;58.10;;;;;;5017588;28;20025;-62
2022/03/15 04:26:08;;;;;;;4.80;2.22;;;17.70;58.30;;;;;;5016528;28;20040;-62
2022/03/15 04:28:33;;;;;;;3.83;2.03;;;17.70;58.10;;;;;;5024541;28;20045;-62
2022/03/15 04:30:59;;;;;;;4.30;2.20;;;17.70;58.20;;;;;;5017766;28;20596;-62
2022/03/15 04:33:25;;;;;;;4.93;2.28;;;17.70;58.10;;;;;;5019513;28;20401;-62
2022/03/15 04:35:50;;;;;;;4.47;2.42;;;17.70;58.10;;;;;;5025787;28;20450;-62
2022/03/15 04:38:16;;;;;;;4.82;2.13;;;17.60;58.30;;;;;;5027188;28;20599;-62
2022/03/15 04:40:42;;;;;;;4.70;2.08;;;17.60;58.00;;;;;;5018017;28;20069;-62
2022/03/15 04:43:07;;;;;;;3.30;1.90;;;17.60;58.10;;;;;;5019607;28;20048;-62
2022/03/15 04:45:33;;;;;;;3.75;2.08;;;17.60;57.90;;;;;;5019172;28;20026;-62
2022/03/15 04:47:58;;;;;;;4.55;2.10;;;17.60;57.90;;;;;;5024515;28;20087;-62
2022/03/15 04:50:24;;;;;;;6.40;2.42;;;17.60;57.80;;;;;;5022525;28;20030;-62
2022/03/15 04:52:50;;;;;;;4.68;2.20;;;17.60;57.90;;;;;;5019271;28;20034;-62
2022/03/15 04:55:16;;;;;;;5.15;2.20;;;17.50;58.20;;;;;;5026129;28;20021;-62
2022/03/15 04:57:42;;;;;;;4.18;2.17;;;17.50;57.80;;;;;;5021803;28;20411;-62
2022/03/15 05:00:09;;;;;;;4.18;2.20;;;17.50;57.90;;;;;;5028340;28;20033;-62
2022/03/15 05:02:39;;;;;;;3.95;2.20;;;17.50;57.70;;;;;;5030569;28;20025;-62
2022/03/15 05:05:05;;;;;;;5.68;2.40;;;17.50;58.00;;;;;;5020331;28;20033;-62
2022/03/15 05:07:31;;;;;;;4.75;2.40;;;17.50;57.60;;;;;;5023030;28;20085;-62
2022/03/15 05:12:42;;;;;;;4.75;2.17;;;17.50;57.70;;;;;;5024037;28;20111;-62
2022/03/15 05:15:08;;;;;;;4.82;2.17;;;17.40;57.60;;;;;;5019602;28;20030;-62
2022/03/15 05:17:36;;;;;;;4.82;1.90;;;17.50;57.60;;;;;;5024205;28;20734;-62
2022/03/15 05:20:04;;;;;;;4.20;2.10;;;17.40;57.50;;;;;;5030643;28;20029;-62
2022/03/15 05:22:31;;;;;;;3.22;1.98;;;17.50;57.60;;;;;;5027155;28;20025;-62
2022/03/15 05:24:57;;;;;;;4.43;2.20;;;17.40;58.00;;;;;;5030543;28;20033;-62
2022/03/15 05:27:22;;;;;;;4.65;2.13;;;17.40;57.60;;;;;;5029791;28;20044;-62
2022/03/15 05:29:48;;;;;;;5.80;2.10;;;17.40;57.90;;;;;;5029661;28;20446;-62
2022/03/15 05:32:14;;;;;;;3.55;2.10;;;17.40;57.80;;;;;;5014262;28;20105;-62
2022/03/15 05:34:39;;;;;;;4.55;2.10;;;17.40;57.60;;;;;;5022539;28;20470;-62
2022/03/15 05:37:07;;;;;;;5.57;2.03;;;17.40;57.80;;;;;;5028844;28;20125;-62
2022/03/15 05:39:34;;;;;;;4.85;2.25;;;17.40;57.50;;;;;;5029706;28;20109;-62
2022/03/15 05:41:59;;;;;;;5.45;2.00;;;17.30;57.50;;;;;;5029927;28;20092;-62
2022/03/15 05:44:26;;;;;;;5.22;2.20;;;17.30;57.80;;;;;;5023469;28;20029;-62
2022/03/15 05:46:52;;;;;;;3.20;1.75;;;17.30;57.60;;;;;;5014836;28;20037;-62
2022/03/15 05:49:18;;;;;;;4.28;1.88;;;17.30;57.70;;;;;;5018926;28;20052;-62
2022/03/15 05:51:43;;;;;;;4.22;2.03;;;17.30;57.30;;;;;;5018642;28;20022;-62
2022/03/15 05:54:09;;;;;;;5.40;2.20;;;17.30;57.80;;;;;;5018667;28;20116;-62
2022/03/15 05:56:35;;;;;;;4.68;2.10;;;17.30;58.80;;;;;;5028865;28;20025;-62
2022/03/15 05:59:01;;;;;;;5.75;2.17;;;17.30;58.90;;;;;;5025297;28;20092;-62
2022/03/15 06:01:27;;;;;;;4.72;1.92;;;17.30;59.10;;;;;;5022777;28;20026;-61
2022/03/15 06:03:53;;;;;;;4.35;2.10;;;17.30;58.80;;;;;;5028106;28;20049;-61
2022/03/15 06:06:21;;;;;;;3.85;2.05;;;17.30;58.30;;;;;;5021151;28;21318;-61
2022/03/15 06:08:48;;;;;;;5.13;2.15;;;17.30;59.00;;;;;;5017420;28;20111;-61
2022/03/15 06:11:15;;;;;;;6.30;2.20;;;17.30;59.10;;;;;;5027357;28;20052;-61
2022/03/15 06:13:40;;;;;;;7.47;2.00;;;17.30;59.30;;;;;;5026863;28;20236;-61
2022/03/15 06:16:06;;;;;;;6.35;2.28;;;17.30;59.20;;;;;;5027119;28;20067;-61
2022/03/15 06:18:31;;;;;;;3.83;2.00;;;17.30;59.10;;;;;;5024215;28;20057;-61
2022/03/15 06:20:57;;;;;;;7.93;2.45;;;17.30;59.10;;;;;;5027462;28;20022;-61
2022/03/15 06:23:24;;;;;;;7.68;2.60;;;17.30;59.90;;;;;;5018913;28;20030;-61
2022/03/15 06:25:49;;;;;;;7.28;2.42;;;17.30;61.30;;;;;;5014540;28;20102;-61
2022/03/15 06:28:15;;;;;;;7.55;2.75;;;17.30;62.20;;;;;;5021627;28;20124;-61
2022/03/15 06:30:41;;;;;;;10.55;2.67;;;17.30;61.80;;;;;;5018064;28;20029;-61
2022/03/15 06:33:07;;;;;;;6.85;2.58;;;17.30;62.00;;;;;;5017439;28;20029;-61
2022/03/15 06:35:33;;;;;;;6.78;2.33;;;17.30;62.20;;;;;;5015797;28;20522;-61
2022/03/15 06:37:59;;;;;;;8.55;2.33;;;17.30;62.30;;;;;;5013502;28;20034;-61
2022/03/15 06:40:26;;;;;;;9.02;2.50;;;17.30;62.30;;;;;;5017395;28;20054;-61
2022/03/15 06:42:54;;;;;;;6.47;2.78;;;17.30;63.20;;;;;;5017469;28;20051;-60
2022/03/15 06:45:20;;;;;;;7.57;2.42;;;17.30;62.10;;;;;;5017200;28;20056;-60
2022/03/15 06:47:46;;;;;;;8.00;2.20;;;17.30;62.00;;;;;;5015496;28;20029;-60
2022/03/15 06:50:16;;;;;;;6.38;2.60;;;17.30;61.90;;;;;;5012160;28;20038;-61
2022/03/15 06:52:42;;;;;;;7.55;2.50;;;17.20;61.80;;;;;;5014284;28;20074;-61
2022/03/15 06:55:09;;;;;;;6.03;2.45;;;17.20;61.50;;;;;;5016883;28;20029;-60
2022/03/15 06:57:35;;;;;;;6.75;2.40;;;17.20;61.50;;;;;;5021289;28;20074;-61
2022/03/15 07:00:02;;;;;;;6.55;2.38;;;17.20;61.40;;;;;;5039482;28;20029;-60
2022/03/15 07:02:27;;;;;;;5.88;2.28;;;17.20;61.20;;;;;;5016358;28;20471;-60
2022/03/15 07:04:53;;;;;;;6.38;2.47;;;17.20;61.00;;;;;;5014396;28;20043;-60
2022/03/15 07:07:19;;;;;;;6.00;2.30;;;17.10;60.80;;;;;;5017482;28;20076;-60
2022/03/15 07:09:45;;;;;;;6.78;2.28;;;17.10;60.90;;;;;;5016877;28;20048;-61
2022/03/15 07:12:11;;;;;;;7.65;2.63;;;17.10;60.90;;;;;;5017803;28;20411;-60
2022/03/15 07:14:37;;;;;;;6.25;2.20;;;17.10;60.90;;;;;;5027949;28;20037;-60
2022/03/15 07:17:03;;;;;;;5.65;2.25;;;17.10;60.90;;;;;;5012884;28;20018;-60
2022/03/15 07:19:29;;;;;;;7.88;2.50;;;17.10;60.80;;;;;;5017126;28;20582;-60
2022/03/15 07:21:54;;;;;;;7.72;2.30;;;17.10;60.80;;;;;;5017151;28;20072;-60
2022/03/15 07:24:20;;;;;;;8.93;2.15;;;17.10;60.70;;;;;;5016710;28;20132;-60
2022/03/15 07:26:46;;;;;;;6.00;2.33;;;17.10;60.80;;;;;;5015293;28;20025;-60
2022/03/15 07:29:12;;;;;;;5.18;2.15;;;17.10;60.80;;;;;;5012601;28;20061;-60
2022/03/15 07:31:37;;;;;;;5.47;2.20;;;17.10;60.80;;;;;;5028574;28;20030;-60
2022/03/15 07:34:03;;;;;;;6.78;2.10;;;17.00;60.70;;;;;;5019699;28;20036;-60
2022/03/15 07:36:29;;;;;;;7.38;2.30;;;17.00;60.70;;;;;;5017026;28;20029;-60
2022/03/15 07:38:55;;;;;;;5.95;2.05;;;17.00;60.70;;;;;;5015709;28;20038;-60
2022/03/15 07:41:23;;;;;;;5.85;2.20;;;17.00;60.80;;;;;;5027941;28;20056;-60
2022/03/15 07:43:49;;;;;;;3.85;2.08;;;17.00;60.80;;;;;;5014731;28;20449;-60
2022/03/15 07:46:15;;;;;;;8.50;2.28;;;17.00;60.70;;;;;;5023160;28;20113;-60
2022/03/15 07:48:41;;;;;;;6.05;2.15;;;17.00;60.70;;;;;;5026135;28;20038;-61
2022/03/15 07:51:06;;;;;;;5.65;2.35;;;17.00;60.90;;;;;;5027244;28;20068;-60
2022/03/15 07:53:32;;;;;;;5.63;2.28;;;17.00;60.90;;;;;;5026832;28;20026;-60
2022/03/15 07:56:00;;;;;;;5.88;1.83;;;17.00;61.00;;;;;;5012105;28;20030;-60
2022/03/15 07:58:27;;;;;;;5.82;2.00;;;17.00;61.00;;;;;;5016685;28;20045;-60
2022/03/15 08:00:56;;;;;;;6.78;2.28;;;17.00;61.00;;;;;;5016715;28;20092;-61
2022/03/15 08:03:23;;;;;;;5.05;2.15;;;17.00;61.00;;;;;;5016548;28;20033;-61
2022/03/15 08:05:49;;;;;;;5.93;2.38;;;17.00;61.10;;;;;;5015263;28;20060;-60
2022/03/15 08:08:15;;;;;;;4.47;2.00;;;17.00;61.10;;;;;;5011653;28;20089;-60
2022/03/15 08:10:41;;;;;;;4.50;1.90;;;17.00;61.10;;;;;;5015257;28;20097;-60
2022/03/15 08:13:07;;;;;;;5.15;2.20;;;17.00;61.10;;;;;;5016445;28;20493;-60
2022/03/15 08:15:32;;;;;;;5.55;2.00;;;17.00;61.10;;;;;;5026781;28;20024;-60
2022/03/15 08:17:58;;;;;;;4.57;2.00;;;17.00;61.10;;;;;;5031524;28;20026;-60
2022/03/15 08:20:27;;;;;;;8.77;2.20;;;17.00;62.20;;;;;;5012169;28;20021;-60
2022/03/15 08:22:54;;;;;;;4.90;2.10;;;17.00;61.10;;;;;;5033623;28;20052;-60
2022/03/15 08:25:20;;;;;;;4.80;2.00;;;17.00;61.10;;;;;;5025477;28;20036;-60
2022/03/15 08:27:46;;;;;;;5.85;2.00;;;17.00;61.10;;;;;;5025071;28;20021;-60
2022/03/15 08:30:12;;;;;;;5.53;2.13;;;17.00;61.10;;;;;;5021506;28;20026;-60
2022/03/15 08:32:37;;;;;;;4.40;1.90;;;17.00;61.00;;;;;;5030856;28;20096;-60
2022/03/15 08:35:03;;;;;;;4.82;2.15;;;17.00;61.00;;;;;;5015384;28;20026;-60
2022/03/15 08:37:29;;;;;;;6.32;2.00;;;17.00;61.00;;;;;;5031393;28;20053;-60
2022/03/15 08:39:55;;;;;;;4.97;1.90;;;17.00;61.00;;;;;;5023548;28;20386;-60
2022/03/15 08:42:21;;;;;;;4.60;1.83;;;17.00;61.00;;;;;;5019728;28;20079;-60
2022/03/15 08:44:46;;;;;;;5.47;1.90;;;17.00;61.00;;;;;;5017877;28;20143;-60
2022/03/15 08:47:14;;;;;;;3.83;1.85;;;17.00;61.00;;;;;;5015258;28;20056;-60
2022/03/15 08:49:41;;;;;;;5.63;2.10;;;17.00;61.00;;;;;;5030787;28;20041;-60
2022/03/15 08:52:08;;;;;;;3.78;1.92;;;16.90;60.90;;;;;;5034049;28;20032;-60
2022/03/15 08:54:34;;;;;;;3.72;1.80;;;16.90;60.80;;;;;;5038149;28;20025;-60
2022/03/15 08:57:00;;;;;;;6.85;2.05;;;17.00;60.90;;;;;;5031618;28;20029;-61
2022/03/15 08:59:26;;;;;;;3.90;1.88;;;16.90;60.80;;;;;;5025844;28;20030;-60
2022/03/15 09:01:52;;;;;;;4.90;1.83;;;17.00;61.00;;;;;;5036235;28;20025;-60
2022/03/15 09:04:18;;;;;;;2.92;1.67;;;17.00;60.90;;;;;;5019798;28;20042;-60
2022/03/15 09:06:43;;;;;;;4.80;1.90;;;17.00;60.90;;;;;;5025523;28;20029;-60
2022/03/15 09:09:09;;;;;;;5.32;2.20;;;17.00;60.90;;;;;;5029262;28;20035;-60
2022/03/15 09:11:35;;;;;;;4.80;1.90;;;17.00;60.90;;;;;;5015684;28;20159;-60
2022/03/15 09:14:00;;;;;;;6.70;2.10;;;17.00;60.80;;;;;;5014013;28;20040;-60
2022/03/15 09:16:26;;;;;;;3.88;1.98;;;17.00;60.80;;;;;;5030287;28;20031;-60
2022/03/15 09:18:52;;;;;;;3.80;1.75;;;17.00;60.80;;;;;;5023040;28;20126;-60
2022/03/15 09:21:21;;;;;;;4.53;1.90;;;17.00;60.70;;;;;;5026287;28;20032;-60
2022/03/15 09:23:46;;;;;;;4.07;1.75;;;17.00;60.60;;;;;;5025987;28;20036;-60
2022/03/15 09:26:12;;;;;;;5.22;1.70;;;17.00;60.70;;;;;;5022296;28;20541;-61
2022/03/15 09:28:38;;;;;;;5.20;1.90;;;17.00;60.60;;;;;;5060635;28;20124;-61
2022/03/15 09:31:04;;;;;;;3.47;1.75;;;17.00;60.50;;;;;;5024921;28;20048;-61
2022/03/15 09:33:29;;;;;;;6.30;1.90;;;17.00;60.50;;;;;;5026045;28;20376;-60
2022/03/15 09:35:55;;;;;;;5.60;1.90;;;17.00;60.50;;;;;;5025869;28;20017;-61
2022/03/15 09:38:22;;;;;;;4.18;1.70;;;17.00;60.50;;;;;;5028850;28;20041;-60
2022/03/15 09:40:52;;;;;;;4.00;1.75;;;17.00;60.40;;;;;;5023928;28;20052;-60
2022/03/15 09:43:21;;;;;;;6.10;2.13;;;17.00;60.30;;;;;;5018112;28;20072;-60
2022/03/15 09:45:46;;;;;;;4.00;1.70;;;17.10;60.50;;;;;;5014676;28;20033;-60
2022/03/15 09:48:15;;;;;;;2.90;1.80;;;17.10;60.40;;;;;;5014506;28;20045;-60
2022/03/15 09:50:41;;;;;;;4.55;1.60;;;17.00;60.30;;;;;;5028124;28;20041;-60
2022/03/15 09:53:07;;;;;;;3.85;1.70;;;17.10;60.40;;;;;;5022735;28;20037;-60
2022/03/15 09:55:33;;;;;;;4.07;1.70;;;17.00;60.40;;;;;;5018186;28;20029;-60
2022/03/15 09:58:00;;;;;;;3.58;1.73;;;17.10;60.30;;;;;;5025047;28;20475;-60
2022/03/15 10:00:26;;;;;;;4.07;1.80;;;17.10;60.30;;;;;;5024978;28;20038;-60
2022/03/15 10:02:52;;;;;;;3.30;1.73;;;17.10;60.30;;;;;;5018163;28;20071;-61
2022/03/15 10:05:19;;;;;;;2.72;1.60;;;17.00;60.20;;;;;;5013171;28;20056;-60
2022/03/15 10:07:51;;;;;;;2.92;1.67;;;17.10;60.20;;;;;;5030969;28;20040;-60
2022/03/15 10:10:17;;;;;;;3.20;1.85;;;17.10;60.30;;;;;;5013029;28;20038;-60
2022/03/15 10:12:42;;;;;;;3.13;1.60;;;17.10;60.20;;;;;;5017949;28;20028;-60
2022/03/15 10:15:16;;;;;;;3.92;1.70;;;17.10;60.60;;;;;;5022375;28;20034;-60
2022/03/15 10:17:53;;;;;;;5.25;1.80;;;17.10;60.90;;;;;;5015342;28;20109;-61
2022/03/15 10:20:19;;;;;;;4.43;1.90;;;17.10;60.90;;;;;;5028120;28;20025;-60
2022/03/15 10:23:11;;;;;;;4.05;1.80;;;17.10;61.90;;;;;;5015894;28;20033;-62
2022/03/15 10:25:40;;;;;;;4.90;1.88;;;17.20;60.80;;;;;;5029098;28;20420;-60
2022/03/15 10:28:07;;;;;;;2.92;1.58;;;17.20;60.90;;;;;;5020943;28;20394;-60
2022/03/15 10:30:33;;;;;;;3.35;1.77;;;17.20;60.60;;;;;;5028114;28;20124;-60
2022/03/15 10:32:59;;;;;;;3.45;1.65;;;17.20;60.60;;;;;;5040229;28;20460;-61
2022/03/15 10:35:26;;;;;;;2.95;1.60;;;17.20;60.50;;;;;;5025098;28;20124;-60
2022/03/15 10:37:53;;;;;;;8.63;2.60;;;17.20;60.50;;;;;;5014680;28;20025;-60
2022/03/15 10:40:30;;;;;;;8.40;2.70;;;17.20;61.10;;;;;;5034344;28;20548;-60
2022/03/15 10:43:03;;;;;;;10.55;2.65;;;17.20;63.80;;;;;;5024039;28;20026;-60
2022/03/15 10:45:28;;;;;;;6.70;2.17;;;17.30;65.00;;;;;;5017404;28;20041;-60
2022/03/15 10:47:55;;;;;;;8.20;2.30;;;17.40;64.80;;;;;;5015711;28;20021;-60
2022/03/15 10:50:22;;;;;;;7.47;2.67;;;17.40;64.40;;;;;;5011599;28;20431;-60
2022/03/15 10:52:48;;;;;;;9.25;2.22;;;17.40;64.30;;;;;;5023077;28;20025;-60
2022/03/15 10:55:19;;;;;;;7.38;2.30;;;17.50;64.20;;;;;;5019331;28;20034;-60
2022/03/15 10:57:45;;;;;;;5.43;2.08;;;17.50;63.80;;;;;;5026077;28;20049;-60
2022/03/15 11:00:12;;;;;;;4.30;2.03;;;17.50;63.50;;;;;;5026875;28;20095;-60
2022/03/15 11:02:47;;;;;;;5.45;2.10;;;17.50;63.20;;;;;;5012223;28;20046;-60
2022/03/15 11:05:20;;;;;;;5.38;2.00;;;17.60;63.00;;;;;;5012602;28;20026;-60
2022/03/15 11:07:48;;;;;;;5.53;2.00;;;17.60;62.90;;;;;;5047490;28;20057;-60
2022/03/15 11:10:14;;;;;;;5.13;2.05;;;17.60;62.70;;;;;;5027572;28;20100;-60
2022/03/15 11:13:11;;;;;;;6.13;2.20;;;17.60;62.50;;;;;;5022950;28;20033;-60
2022/03/15 11:15:49;;;;;;;6.88;2.22;;;17.70;62.40;;;;;;5016813;28;20113;-60
2022/03/15 11:18:16;;;;;;;5.18;1.92;;;17.70;62.30;;;;;;5017219;28;20070;-60
2022/03/15 11:20:43;;;;;;;4.18;1.90;;;17.70;62.20;;;;;;5014768;28;20108;-60
2022/03/15 11:23:11;;;;;;;7.40;2.17;;;17.70;62.10;;;;;;5028803;28;20025;-60
2022/03/15 11:25:45;;;;;;;5.38;2.10;;;17.80;62.00;;;;;;5024273;28;20041;-60
2022/03/15 11:28:12;;;;;;;5.97;1.83;;;17.80;61.80;;;;;;5027443;28;20072;-60
2022/03/15 11:30:39;;;;;;;6.32;2.03;;;17.90;61.70;;;;;;5022761;28;20042;-60
2022/03/15 11:33:05;;;;;;;6.88;2.00;;;17.80;61.50;;;;;;5016986;28;20043;-60
2022/03/15 11:35:32;;;;;;;6.53;2.13;;;17.90;61.50;;;;;;5013305;28;20067;-60
2022/03/15 11:38:02;;;;;;;5.65;2.00;;;18.00;61.40;;;;;;5013091;28;20833;-60
2022/03/15 11:40:27;;;;;;;5.35;2.03;;;18.00;61.20;;;;;;5016740;28;20065;-60
2022/03/15 11:42:59;;;;;;;3.90;1.77;;;18.00;61.20;;;;;;5017151;28;20562;-60
2022/03/15 11:45:29;;;;;;;6.03;2.00;;;18.00;61.10;;;;;;5055200;28;20042;-60
2022/03/15 11:48:19;;;;;;;4.30;1.75;;;18.10;61.00;;;;;;5016349;28;20018;-60
2022/03/15 11:51:32;;;;;;;5.20;1.77;;;18.10;60.90;;;;;;5014748;28;20095;-60
2022/03/15 11:54:08;;;;;;;4.80;1.85;;;18.10;60.80;;;;;;5005959;28;20116;-60
2022/03/15 11:57:10;;;;;;;3.75;1.58;;;18.10;60.70;;;;;;4991158;28;20514;-60
2022/03/15 11:59:49;;;;;;;4.10;1.90;;;18.10;60.70;;;;;;4966704;28;20041;-60
2022/03/15 12:02:26;;;;;;;3.75;1.67;;;18.20;60.40;;;;;;4969843;28;20035;-60
2022/03/15 12:04:52;;;;;;;3.83;1.83;;;18.20;60.50;;;;;;4957077;28;20055;-60
2022/03/15 12:07:39;;;;;;;6.38;2.13;;;18.30;60.40;;;;;;4970379;28;20058;-60
2022/03/15 12:10:08;;;;;;;5.43;2.42;;;18.40;60.30;;;;;;4955695;28;20067;-60
2022/03/15 12:12:33;;;;;;;5.38;1.70;;;18.40;60.10;;;;;;4970322;28;20023;-60
2022/03/15 12:15:14;;;;;;;3.53;1.60;;;18.40;59.90;;;;;;4969905;28;20046;-60
2022/03/15 12:17:39;;;;;;;5.03;1.80;;;18.50;59.90;;;;;;4970212;28;20027;-60
2022/03/15 12:20:14;;;;;;;6.95;2.10;;;18.50;59.80;;;;;;4969832;28;20035;-60
2022/03/15 12:22:43;;;;;;;5.35;1.80;;;18.50;60.80;;;;;;4971094;28;20082;-60
2022/03/15 12:25:14;;;;;;;5.15;2.05;;;18.50;59.80;;;;;;4970204;28;20484;-60
2022/03/15 12:27:46;;;;;;;5.50;1.65;;;18.50;59.90;;;;;;4982700;28;20037;-60
2022/03/15 12:30:18;;;;;;;3.97;1.70;;;18.50;59.90;;;;;;5007053;28;20129;-60
2022/03/15 12:32:50;;;;;;;5.03;1.70;;;18.50;59.80;;;;;;5004526;28;20110;-60
2022/03/15 12:35:16;;;;;;;5.13;1.80;;;18.50;60.00;;;;;;5005731;28;20038;-60
2022/03/15 12:37:42;;;;;;;7.32;1.80;;;18.40;59.80;;;;;;5018544;28;20018;-60
2022/03/15 12:40:10;;;;;;;4.05;1.90;;;18.50;59.90;;;;;;5023362;28;20030;-60
2022/03/15 12:42:35;;;;;;;3.42;1.83;;;18.50;59.90;;;;;;5030317;28;20033;-60
2022/03/15 12:45:03;;;;;;;4.63;1.90;;;18.50;59.80;;;;;;5029595;28;20029;-60
2022/03/15 12:47:32;;;;;;;4.55;1.95;;;18.50;59.70;;;;;;5029944;28;20055;-60
2022/03/15 12:50:13;;;;;;;4.18;1.80;;;18.60;59.70;;;;;;5015824;28;20038;-60